FNHU Airport Information

Runway Information
Runway 01 Length 3281 ft width 0 ft
Elevation 5571 ft Threshold 0 ft Heading 0
Runway 19 Length 3281 ft Width 0 ft
Elevation 5568 ft Threshold 0 ft Heading 0
Runway 11 Length 8727 ft width 148 ft
Elevation 5587 ft Threshold 0 ft Heading 100
Runway 29 Length 8727 ft Width 148 ft
Elevation 5561 ft Threshold 0 ft Heading 280
Airport Frequencies
Type AFIS Name AFIS Frequency 118.3 MHZ
Airport Navaids
Type NDB Name Huambo Frequency 285 KHZ
Type VOR-DME Name Huambo Frequency 113300 KHZ
Airport Weather Information & NOTAM
ADDS - METARS form results

(1008 UTC 16 November 2018)
Data provider http://aviationweather.gov/metar/data/
 
Forecast for: FNHU (HUAMBO/NOVA LISB, AO)
Text: TAF FNHU 152230Z 1600/1612 VRB03KT 9000 FEW010
Forecast period: 0000 to 0900 UTC 16 November 2018
Forecast type: FROM: standard forecast or significant change
Winds: variable direction winds at 3 MPH (3 knots; 1.5 m/s)
Visibility: 6 miles (9 km)
Ceiling: at least 12,000 feet AGL
Clouds: few clouds at 1000 feet AGL
Weather: no significant weather forecast for this period
Text: BECMG 1609/1611 34005KT CAVOK
Forecast period: 0900 to 1200 UTC 16 November 2018
Forecast type: BECOMING: Conditions expected to become as follows by 1100 UTC 16 November 2018
Winds: from the NNW (340 degrees) at 6 MPH (5 knots; 2.6 m/s)
Visibility: 6 or more miles 10+ km)
Ceiling: unknown
Clouds: missing
Weather: NSW  (no significant weather)